sensor_id;sensor_type;location;lat;lon;timestamp;P1;durP1;ratioP1;P2;durP2;ratioP2
15944;SDS011;30172;48.832;8.732;2023-07-30T00:00:53;1.13;;;0.90;;
15944;SDS011;30172;48.832;8.732;2023-07-30T00:03:18;0.98;;;0.90;;
15944;SDS011;30172;48.832;8.732;2023-07-30T00:05:51;1.95;;;1.10;;
15944;SDS011;30172;48.832;8.732;2023-07-30T00:08:17;1.20;;;1.08;;
15944;SDS011;30172;48.832;8.732;2023-07-30T00:10:42;1.75;;;1.08;;
15944;SDS011;30172;48.832;8.732;2023-07-30T00:13:07;1.10;;;1.00;;
15944;SDS011;30172;48.832;8.732;2023-07-30T00:15:33;2.05;;;0.68;;
15944;SDS011;30172;48.832;8.732;2023-07-30T00:17:58;1.45;;;0.90;;
15944;SDS011;30172;48.832;8.732;2023-07-30T00:20:23;1.35;;;0.90;;
15944;SDS011;30172;48.832;8.732;2023-07-30T00:22:49;1.10;;;0.77;;
15944;SDS011;30172;48.832;8.732;2023-07-30T00:25:14;0.90;;;0.90;;
15944;SDS011;30172;48.832;8.732;2023-07-30T00:27:39;0.93;;;0.90;;
15944;SDS011;30172;48.832;8.732;2023-07-30T00:30:05;2.97;;;1.10;;
15944;SDS011;30172;48.832;8.732;2023-07-30T00:32:31;1.23;;;1.10;;
15944;SDS011;30172;48.832;8.732;2023-07-30T00:34:56;2.25;;;1.00;;
15944;SDS011;30172;48.832;8.732;2023-07-30T00:37:22;1.52;;;1.10;;
15944;SDS011;30172;48.832;8.732;2023-07-30T00:39:47;1.38;;;1.10;;
15944;SDS011;30172;48.832;8.732;2023-07-30T00:42:12;1.45;;;1.20;;
15944;SDS011;30172;48.832;8.732;2023-07-30T00:44:38;1.30;;;1.20;;
15944;SDS011;30172;48.832;8.732;2023-07-30T00:47:03;1.35;;;1.10;;
15944;SDS011;30172;48.832;8.732;2023-07-30T00:49:29;1.90;;;1.33;;
15944;SDS011;30172;48.832;8.732;2023-07-30T00:51:54;1.48;;;1.30;;
15944;SDS011;30172;48.832;8.732;2023-07-30T00:54:21;1.35;;;1.25;;
15944;SDS011;30172;48.832;8.732;2023-07-30T00:56:48;1.00;;;1.00;;
15944;SDS011;30172;48.832;8.732;2023-07-30T00:59:16;1.45;;;1.35;;
15944;SDS011;30172;48.832;8.732;2023-07-30T01:01:41;2.00;;;1.50;;
15944;SDS011;30172;48.832;8.732;2023-07-30T01:04:08;3.40;;;1.25;;
15944;SDS011;30172;48.832;8.732;2023-07-30T01:06:34;1.70;;;1.60;;
15944;SDS011;30172;48.832;8.732;2023-07-30T01:08:59;1.55;;;1.45;;
15944;SDS011;30172;48.832;8.732;2023-07-30T01:11:24;2.53;;;1.52;;
15944;SDS011;30172;48.832;8.732;2023-07-30T01:13:50;1.40;;;1.20;;
15944;SDS011;30172;48.832;8.732;2023-07-30T01:16:15;1.90;;;1.40;;
15944;SDS011;30172;48.832;8.732;2023-07-30T01:18:41;2.17;;;1.60;;
15944;SDS011;30172;48.832;8.732;2023-07-30T01:21:06;1.45;;;1.35;;
15944;SDS011;30172;48.832;8.732;2023-07-30T01:23:31;1.58;;;1.35;;
15944;SDS011;30172;48.832;8.732;2023-07-30T01:26:08;1.48;;;1.20;;
15944;SDS011;30172;48.832;8.732;2023-07-30T01:28:36;2.15;;;1.50;;
15944;SDS011;30172;48.832;8.732;2023-07-30T01:31:03;4.00;;;1.77;;
15944;SDS011;30172;48.832;8.732;2023-07-30T01:33:30;2.03;;;1.60;;
15944;SDS011;30172;48.832;8.732;2023-07-30T01:35:56;3.40;;;1.50;;
15944;SDS011;30172;48.832;8.732;2023-07-30T01:38:22;1.35;;;1.25;;
15944;SDS011;30172;48.832;8.732;2023-07-30T01:40:47;1.58;;;1.30;;
15944;SDS011;30172;48.832;8.732;2023-07-30T01:43:13;1.35;;;1.17;;
15944;SDS011;30172;48.832;8.732;2023-07-30T01:45:38;1.50;;;1.40;;
15944;SDS011;30172;48.832;8.732;2023-07-30T01:48:05;2.20;;;1.75;;
15944;SDS011;30172;48.832;8.732;2023-07-30T01:50:30;2.20;;;1.45;;
15944;SDS011;30172;48.832;8.732;2023-07-30T01:52:55;1.40;;;1.30;;
15944;SDS011;30172;48.832;8.732;2023-07-30T01:55:20;1.35;;;1.25;;
15944;SDS011;30172;48.832;8.732;2023-07-30T01:57:46;2.03;;;1.30;;
15944;SDS011;30172;48.832;8.732;2023-07-30T02:00:11;1.20;;;1.10;;
15944;SDS011;30172;48.832;8.732;2023-07-30T02:02:37;3.17;;;1.40;;
15944;SDS011;30172;48.832;8.732;2023-07-30T02:05:02;1.40;;;1.30;;
15944;SDS011;30172;48.832;8.732;2023-07-30T02:07:27;1.58;;;1.40;;
15944;SDS011;30172;48.832;8.732;2023-07-30T02:09:53;2.45;;;1.90;;
15944;SDS011;30172;48.832;8.732;2023-07-30T02:12:18;2.10;;;2.00;;
15944;SDS011;30172;48.832;8.732;2023-07-30T02:14:43;2.58;;;1.85;;
15944;SDS011;30172;48.832;8.732;2023-07-30T02:17:09;2.40;;;2.20;;
15944;SDS011;30172;48.832;8.732;2023-07-30T02:19:34;2.53;;;2.33;;
15944;SDS011;30172;48.832;8.732;2023-07-30T02:22:00;4.45;;;2.58;;
15944;SDS011;30172;48.832;8.732;2023-07-30T02:24:25;3.55;;;2.28;;
15944;SDS011;30172;48.832;8.732;2023-07-30T02:26:50;2.78;;;2.58;;
15944;SDS011;30172;48.832;8.732;2023-07-30T02:29:15;2.35;;;2.15;;
15944;SDS011;30172;48.832;8.732;2023-07-30T02:31:41;2.90;;;2.30;;
15944;SDS011;30172;48.832;8.732;2023-07-30T02:34:06;3.00;;;2.70;;
15944;SDS011;30172;48.832;8.732;2023-07-30T02:36:33;2.70;;;2.50;;
15944;SDS011;30172;48.832;8.732;2023-07-30T02:38:59;3.03;;;2.58;;
15944;SDS011;30172;48.832;8.732;2023-07-30T02:41:24;2.95;;;2.67;;
15944;SDS011;30172;48.832;8.732;2023-07-30T02:43:49;2.80;;;2.60;;
15944;SDS011;30172;48.832;8.732;2023-07-30T02:46:15;4.97;;;3.08;;
15944;SDS011;30172;48.832;8.732;2023-07-30T02:48:40;3.78;;;2.88;;
15944;SDS011;30172;48.832;8.732;2023-07-30T02:51:05;2.60;;;2.40;;
15944;SDS011;30172;48.832;8.732;2023-07-30T02:53:31;3.03;;;2.63;;
15944;SDS011;30172;48.832;8.732;2023-07-30T02:55:56;2.75;;;2.50;;
15944;SDS011;30172;48.832;8.732;2023-07-30T02:58:21;4.15;;;2.60;;
15944;SDS011;30172;48.832;8.732;2023-07-30T03:00:47;3.60;;;2.53;;
15944;SDS011;30172;48.832;8.732;2023-07-30T03:03:12;5.63;;;2.60;;
15944;SDS011;30172;48.832;8.732;2023-07-30T03:05:39;3.30;;;2.85;;
15944;SDS011;30172;48.832;8.732;2023-07-30T03:08:06;2.92;;;2.50;;
15944;SDS011;30172;48.832;8.732;2023-07-30T03:10:32;3.45;;;2.70;;
15944;SDS011;30172;48.832;8.732;2023-07-30T03:12:57;3.33;;;2.63;;
15944;SDS011;30172;48.832;8.732;2023-07-30T03:15:22;2.70;;;2.47;;
15944;SDS011;30172;48.832;8.732;2023-07-30T03:17:48;3.30;;;2.22;;
15944;SDS011;30172;48.832;8.732;2023-07-30T03:20:13;3.03;;;2.20;;
15944;SDS011;30172;48.832;8.732;2023-07-30T03:22:38;3.40;;;2.45;;
15944;SDS011;30172;48.832;8.732;2023-07-30T03:25:04;4.65;;;2.88;;
15944;SDS011;30172;48.832;8.732;2023-07-30T03:27:29;3.35;;;2.53;;
15944;SDS011;30172;48.832;8.732;2023-07-30T03:29:54;2.90;;;2.63;;
15944;SDS011;30172;48.832;8.732;2023-07-30T03:32:20;2.42;;;2.17;;
15944;SDS011;30172;48.832;8.732;2023-07-30T03:34:45;3.08;;;2.50;;
15944;SDS011;30172;48.832;8.732;2023-07-30T03:37:10;3.03;;;2.83;;
15944;SDS011;30172;48.832;8.732;2023-07-30T03:39:36;4.75;;;2.85;;
15944;SDS011;30172;48.832;8.732;2023-07-30T03:42:01;3.05;;;2.63;;
15944;SDS011;30172;48.832;8.732;2023-07-30T03:44:26;2.65;;;2.45;;
15944;SDS011;30172;48.832;8.732;2023-07-30T03:46:52;3.90;;;2.90;;
15944;SDS011;30172;48.832;8.732;2023-07-30T03:49:17;2.92;;;2.65;;
15944;SDS011;30172;48.832;8.732;2023-07-30T03:51:42;3.42;;;2.40;;
15944;SDS011;30172;48.832;8.732;2023-07-30T03:54:08;3.63;;;3.10;;
15944;SDS011;30172;48.832;8.732;2023-07-30T03:56:33;2.90;;;2.60;;
15944;SDS011;30172;48.832;8.732;2023-07-30T03:58:58;3.42;;;2.67;;
15944;SDS011;30172;48.832;8.732;2023-07-30T04:01:24;2.78;;;2.53;;
15944;SDS011;30172;48.832;8.732;2023-07-30T04:03:49;3.22;;;2.60;;
15944;SDS011;30172;48.832;8.732;2023-07-30T04:06:15;3.50;;;2.45;;
15944;SDS011;30172;48.832;8.732;2023-07-30T04:08:40;3.47;;;2.55;;
15944;SDS011;30172;48.832;8.732;2023-07-30T04:11:05;3.10;;;2.75;;
15944;SDS011;30172;48.832;8.732;2023-07-30T04:13:31;2.92;;;2.20;;
15944;SDS011;30172;48.832;8.732;2023-07-30T04:15:56;2.40;;;2.10;;
15944;SDS011;30172;48.832;8.732;2023-07-30T04:18:21;2.80;;;2.28;;
15944;SDS011;30172;48.832;8.732;2023-07-30T04:20:47;2.63;;;1.90;;
15944;SDS011;30172;48.832;8.732;2023-07-30T04:23:13;3.25;;;2.20;;
15944;SDS011;30172;48.832;8.732;2023-07-30T04:25:38;1.50;;;1.40;;
15944;SDS011;30172;48.832;8.732;2023-07-30T04:28:03;1.50;;;1.40;;
15944;SDS011;30172;48.832;8.732;2023-07-30T04:30:29;1.98;;;1.50;;
15944;SDS011;30172;48.832;8.732;2023-07-30T04:32:54;2.03;;;1.50;;
15944;SDS011;30172;48.832;8.732;2023-07-30T04:35:19;1.30;;;1.20;;
15944;SDS011;30172;48.832;8.732;2023-07-30T04:37:45;1.70;;;1.55;;
15944;SDS011;30172;48.832;8.732;2023-07-30T04:40:10;1.58;;;1.45;;
15944;SDS011;30172;48.832;8.732;2023-07-30T04:42:35;2.53;;;1.60;;
15944;SDS011;30172;48.832;8.732;2023-07-30T04:45:01;1.95;;;1.50;;
15944;SDS011;30172;48.832;8.732;2023-07-30T04:47:26;3.72;;;1.55;;
15944;SDS011;30172;48.832;8.732;2023-07-30T04:49:51;1.38;;;1.27;;
15944;SDS011;30172;48.832;8.732;2023-07-30T04:52:17;1.55;;;1.45;;
15944;SDS011;30172;48.832;8.732;2023-07-30T04:54:42;1.45;;;1.35;;
15944;SDS011;30172;48.832;8.732;2023-07-30T04:57:07;2.72;;;1.40;;
15944;SDS011;30172;48.832;8.732;2023-07-30T04:59:33;1.63;;;1.50;;
15944;SDS011;30172;48.832;8.732;2023-07-30T05:02:01;1.63;;;1.27;;
15944;SDS011;30172;48.832;8.732;2023-07-30T05:04:26;2.88;;;1.60;;
15944;SDS011;30172;48.832;8.732;2023-07-30T05:06:51;3.03;;;1.55;;
15944;SDS011;30172;48.832;8.732;2023-07-30T05:09:17;1.58;;;1.40;;
15944;SDS011;30172;48.832;8.732;2023-07-30T05:11:42;2.17;;;1.30;;
15944;SDS011;30172;48.832;8.732;2023-07-30T05:14:07;3.42;;;1.20;;
15944;SDS011;30172;48.832;8.732;2023-07-30T05:16:33;1.00;;;1.00;;
15944;SDS011;30172;48.832;8.732;2023-07-30T05:18:58;1.05;;;1.00;;
15944;SDS011;30172;48.832;8.732;2023-07-30T05:21:23;1.25;;;0.95;;
15944;SDS011;30172;48.832;8.732;2023-07-30T05:23:49;1.15;;;0.90;;
15944;SDS011;30172;48.832;8.732;2023-07-30T05:26:14;1.33;;;0.90;;
15944;SDS011;30172;48.832;8.732;2023-07-30T05:28:39;1.10;;;1.00;;
15944;SDS011;30172;48.832;8.732;2023-07-30T05:31:05;2.40;;;1.10;;
15944;SDS011;30172;48.832;8.732;2023-07-30T05:33:30;1.17;;;1.00;;
15944;SDS011;30172;48.832;8.732;2023-07-30T05:35:55;1.17;;;1.02;;
15944;SDS011;30172;48.832;8.732;2023-07-30T05:38:21;1.48;;;1.38;;
15944;SDS011;30172;48.832;8.732;2023-07-30T05:40:46;1.40;;;1.20;;
15944;SDS011;30172;48.832;8.732;2023-07-30T05:43:12;1.20;;;1.10;;
15944;SDS011;30172;48.832;8.732;2023-07-30T05:45:37;1.20;;;1.10;;
15944;SDS011;30172;48.832;8.732;2023-07-30T05:48:03;1.75;;;1.00;;
15944;SDS011;30172;48.832;8.732;2023-07-30T05:50:28;1.15;;;1.05;;
15944;SDS011;30172;48.832;8.732;2023-07-30T05:52:53;1.77;;;1.25;;
15944;SDS011;30172;48.832;8.732;2023-07-30T05:55:19;1.65;;;1.30;;
15944;SDS011;30172;48.832;8.732;2023-07-30T05:57:44;1.42;;;1.20;;
15944;SDS011;30172;48.832;8.732;2023-07-30T06:00:09;1.48;;;0.90;;
15944;SDS011;30172;48.832;8.732;2023-07-30T06:02:35;1.77;;;1.35;;
15944;SDS011;30172;48.832;8.732;2023-07-30T06:05:00;1.73;;;1.05;;
15944;SDS011;30172;48.832;8.732;2023-07-30T06:07:26;1.13;;;1.10;;
15944;SDS011;30172;48.832;8.732;2023-07-30T06:09:51;2.75;;;1.20;;
15944;SDS011;30172;48.832;8.732;2023-07-30T06:12:17;1.42;;;1.33;;
15944;SDS011;30172;48.832;8.732;2023-07-30T06:14:42;1.90;;;1.40;;
15944;SDS011;30172;48.832;8.732;2023-07-30T06:17:07;1.63;;;1.35;;
15944;SDS011;30172;48.832;8.732;2023-07-30T06:19:33;3.05;;;1.42;;
15944;SDS011;30172;48.832;8.732;2023-07-30T06:21:59;1.90;;;1.50;;
15944;SDS011;30172;48.832;8.732;2023-07-30T06:24:24;1.58;;;1.20;;
15944;SDS011;30172;48.832;8.732;2023-07-30T06:26:50;1.38;;;1.25;;
15944;SDS011;30172;48.832;8.732;2023-07-30T06:29:15;1.33;;;1.23;;
15944;SDS011;30172;48.832;8.732;2023-07-30T06:31:41;2.50;;;1.23;;
15944;SDS011;30172;48.832;8.732;2023-07-30T06:34:06;1.58;;;1.48;;
15944;SDS011;30172;48.832;8.732;2023-07-30T06:36:31;1.52;;;1.42;;
15944;SDS011;30172;48.832;8.732;2023-07-30T06:38:57;1.67;;;1.42;;
15944;SDS011;30172;48.832;8.732;2023-07-30T06:41:22;1.60;;;1.50;;
15944;SDS011;30172;48.832;8.732;2023-07-30T06:43:47;1.73;;;1.63;;
15944;SDS011;30172;48.832;8.732;2023-07-30T06:46:13;2.05;;;1.40;;
15944;SDS011;30172;48.832;8.732;2023-07-30T06:48:38;2.00;;;1.67;;
15944;SDS011;30172;48.832;8.732;2023-07-30T06:51:06;1.70;;;1.60;;
15944;SDS011;30172;48.832;8.732;2023-07-30T06:53:32;3.72;;;1.92;;
15944;SDS011;30172;48.832;8.732;2023-07-30T06:55:58;1.90;;;1.80;;
15944;SDS011;30172;48.832;8.732;2023-07-30T06:58:23;1.83;;;1.63;;
15944;SDS011;30172;48.832;8.732;2023-07-30T07:00:48;2.25;;;1.85;;
15944;SDS011;30172;48.832;8.732;2023-07-30T07:03:13;2.45;;;1.60;;
15944;SDS011;30172;48.832;8.732;2023-07-30T07:05:39;2.80;;;1.95;;
15944;SDS011;30172;48.832;8.732;2023-07-30T07:08:04;2.20;;;1.80;;
15944;SDS011;30172;48.832;8.732;2023-07-30T07:10:30;1.95;;;1.52;;
15944;SDS011;30172;48.832;8.732;2023-07-30T07:12:56;1.80;;;1.70;;
15944;SDS011;30172;48.832;8.732;2023-07-30T07:15:21;1.55;;;1.35;;
15944;SDS011;30172;48.832;8.732;2023-07-30T07:17:46;2.42;;;1.70;;
15944;SDS011;30172;48.832;8.732;2023-07-30T07:20:12;2.50;;;1.90;;
15944;SDS011;30172;48.832;8.732;2023-07-30T07:22:37;3.25;;;1.80;;
15944;SDS011;30172;48.832;8.732;2023-07-30T07:25:02;1.95;;;1.70;;
15944;SDS011;30172;48.832;8.732;2023-07-30T07:27:28;2.00;;;1.73;;
15944;SDS011;30172;48.832;8.732;2023-07-30T07:29:53;2.35;;;1.70;;
15944;SDS011;30172;48.832;8.732;2023-07-30T07:32:19;2.10;;;1.90;;
15944;SDS011;30172;48.832;8.732;2023-07-30T07:34:47;2.78;;;1.70;;
15944;SDS011;30172;48.832;8.732;2023-07-30T07:37:13;1.83;;;1.70;;
15944;SDS011;30172;48.832;8.732;2023-07-30T07:39:43;2.88;;;2.00;;
15944;SDS011;30172;48.832;8.732;2023-07-30T07:42:09;2.83;;;2.03;;
15944;SDS011;30172;48.832;8.732;2023-07-30T07:44:35;4.47;;;1.85;;
15944;SDS011;30172;48.832;8.732;2023-07-30T07:47:00;2.63;;;2.28;;
15944;SDS011;30172;48.832;8.732;2023-07-30T07:49:25;2.50;;;1.80;;
15944;SDS011;30172;48.832;8.732;2023-07-30T07:51:51;2.72;;;2.40;;
15944;SDS011;30172;48.832;8.732;2023-07-30T07:54:16;2.72;;;2.20;;
15944;SDS011;30172;48.832;8.732;2023-07-30T07:56:41;2.20;;;2.00;;
15944;SDS011;30172;48.832;8.732;2023-07-30T07:59:07;2.63;;;2.15;;
15944;SDS011;30172;48.832;8.732;2023-07-30T08:01:32;2.58;;;2.08;;
15944;SDS011;30172;48.832;8.732;2023-07-30T08:03:57;2.35;;;1.80;;
15944;SDS011;30172;48.832;8.732;2023-07-30T08:06:23;2.53;;;2.17;;
15944;SDS011;30172;48.832;8.732;2023-07-30T08:08:48;2.70;;;1.80;;
15944;SDS011;30172;48.832;8.732;2023-07-30T08:11:13;3.90;;;2.17;;
15944;SDS011;30172;48.832;8.732;2023-07-30T08:13:39;2.78;;;1.77;;
15944;SDS011;30172;48.832;8.732;2023-07-30T08:16:04;2.45;;;1.92;;
15944;SDS011;30172;48.832;8.732;2023-07-30T08:18:30;2.38;;;1.90;;
15944;SDS011;30172;48.832;8.732;2023-07-30T08:20:55;1.90;;;1.77;;
15944;SDS011;30172;48.832;8.732;2023-07-30T08:23:20;2.55;;;2.33;;
15944;SDS011;30172;48.832;8.732;2023-07-30T08:25:46;2.00;;;1.80;;
15944;SDS011;30172;48.832;8.732;2023-07-30T08:28:11;2.17;;;1.98;;
15944;SDS011;30172;48.832;8.732;2023-07-30T08:30:36;3.40;;;2.28;;
15944;SDS011;30172;48.832;8.732;2023-07-30T08:33:02;2.13;;;1.90;;
15944;SDS011;30172;48.832;8.732;2023-07-30T08:35:28;2.25;;;2.05;;
15944;SDS011;30172;48.832;8.732;2023-07-30T08:37:53;2.45;;;2.25;;
15944;SDS011;30172;48.832;8.732;2023-07-30T08:40:20;4.05;;;2.17;;
15944;SDS011;30172;48.832;8.732;2023-07-30T08:42:48;2.25;;;1.65;;
15944;SDS011;30172;48.832;8.732;2023-07-30T08:45:14;2.95;;;2.17;;
15944;SDS011;30172;48.832;8.732;2023-07-30T08:47:40;3.30;;;1.92;;
15944;SDS011;30172;48.832;8.732;2023-07-30T08:50:06;2.35;;;2.10;;
15944;SDS011;30172;48.832;8.732;2023-07-30T08:52:32;4.13;;;1.85;;
15944;SDS011;30172;48.832;8.732;2023-07-30T08:54:57;2.15;;;1.95;;
15944;SDS011;30172;48.832;8.732;2023-07-30T08:57:23;2.20;;;2.05;;
15944;SDS011;30172;48.832;8.732;2023-07-30T08:59:50;2.22;;;2.03;;
15944;SDS011;30172;48.832;8.732;2023-07-30T09:02:28;4.05;;;2.45;;
15944;SDS011;30172;48.832;8.732;2023-07-30T09:04:56;3.55;;;2.05;;
15944;SDS011;30172;48.832;8.732;2023-07-30T09:07:26;2.58;;;2.33;;
15944;SDS011;30172;48.832;8.732;2023-07-30T09:09:51;2.42;;;1.85;;
15944;SDS011;30172;48.832;8.732;2023-07-30T09:12:16;2.42;;;2.03;;
15944;SDS011;30172;48.832;8.732;2023-07-30T09:14:42;3.17;;;2.30;;
15944;SDS011;30172;48.832;8.732;2023-07-30T09:17:20;4.43;;;2.17;;
15944;SDS011;30172;48.832;8.732;2023-07-30T09:19:45;2.83;;;2.00;;
15944;SDS011;30172;48.832;8.732;2023-07-30T09:22:28;4.13;;;2.90;;
15944;SDS011;30172;48.832;8.732;2023-07-30T09:25:00;2.92;;;2.20;;
15944;SDS011;30172;48.832;8.732;2023-07-30T09:27:27;5.13;;;2.35;;
15944;SDS011;30172;48.832;8.732;2023-07-30T09:29:53;3.55;;;2.50;;
15944;SDS011;30172;48.832;8.732;2023-07-30T09:32:19;3.58;;;2.33;;
15944;SDS011;30172;48.832;8.732;2023-07-30T09:34:45;4.18;;;2.20;;
15944;SDS011;30172;48.832;8.732;2023-07-30T09:37:11;2.78;;;2.45;;
15944;SDS011;30172;48.832;8.732;2023-07-30T09:39:37;3.20;;;2.38;;
15944;SDS011;30172;48.832;8.732;2023-07-30T09:42:02;3.50;;;2.50;;
15944;SDS011;30172;48.832;8.732;2023-07-30T09:44:28;2.60;;;2.40;;
15944;SDS011;30172;48.832;8.732;2023-07-30T09:46:53;3.42;;;2.47;;
15944;SDS011;30172;48.832;8.732;2023-07-30T09:49:19;3.08;;;2.50;;
15944;SDS011;30172;48.832;8.732;2023-07-30T09:51:44;3.72;;;2.70;;
15944;SDS011;30172;48.832;8.732;2023-07-30T09:54:13;3.05;;;2.60;;
15944;SDS011;30172;48.832;8.732;2023-07-30T09:56:40;2.88;;;2.42;;
15944;SDS011;30172;48.832;8.732;2023-07-30T09:59:06;2.70;;;2.50;;
15944;SDS011;30172;48.832;8.732;2023-07-30T10:01:33;3.13;;;2.70;;
15944;SDS011;30172;48.832;8.732;2023-07-30T10:04:10;2.72;;;2.53;;
15944;SDS011;30172;48.832;8.732;2023-07-30T10:06:37;2.42;;;2.22;;
15944;SDS011;30172;48.832;8.732;2023-07-30T10:09:06;3.30;;;2.45;;
15944;SDS011;30172;48.832;8.732;2023-07-30T10:11:32;3.08;;;2.40;;
15944;SDS011;30172;48.832;8.732;2023-07-30T10:13:58;5.10;;;2.50;;
15944;SDS011;30172;48.832;8.732;2023-07-30T10:16:26;4.47;;;3.30;;
15944;SDS011;30172;48.832;8.732;2023-07-30T10:18:55;5.63;;;2.35;;
15944;SDS011;30172;48.832;8.732;2023-07-30T10:21:23;3.40;;;2.75;;
15944;SDS011;30172;48.832;8.732;2023-07-30T10:24:01;3.03;;;2.20;;
15944;SDS011;30172;48.832;8.732;2023-07-30T10:26:28;2.70;;;2.45;;
15944;SDS011;30172;48.832;8.732;2023-07-30T10:29:10;2.90;;;2.30;;
15944;SDS011;30172;48.832;8.732;2023-07-30T10:31:43;4.68;;;2.60;;
15944;SDS011;30172;48.832;8.732;2023-07-30T10:34:19;5.85;;;2.63;;
15944;SDS011;30172;48.832;8.732;2023-07-30T10:36:50;2.53;;;2.33;;
15944;SDS011;30172;48.832;8.732;2023-07-30T10:39:17;2.90;;;2.30;;
15944;SDS011;30172;48.832;8.732;2023-07-30T10:41:46;3.88;;;2.20;;
15944;SDS011;30172;48.832;8.732;2023-07-30T10:44:24;4.00;;;2.25;;
15944;SDS011;30172;48.832;8.732;2023-07-30T10:46:50;2.70;;;2.50;;
15944;SDS011;30172;48.832;8.732;2023-07-30T10:49:17;6.03;;;2.80;;
15944;SDS011;30172;48.832;8.732;2023-07-30T10:51:42;2.90;;;2.00;;
15944;SDS011;30172;48.832;8.732;2023-07-30T10:54:07;2.72;;;2.35;;
15944;SDS011;30172;48.832;8.732;2023-07-30T10:56:34;3.88;;;2.70;;
15944;SDS011;30172;48.832;8.732;2023-07-30T10:59:01;2.80;;;2.60;;
15944;SDS011;30172;48.832;8.732;2023-07-30T11:01:28;2.92;;;2.58;;
15944;SDS011;30172;48.832;8.732;2023-07-30T11:03:54;3.63;;;2.40;;
15944;SDS011;30172;48.832;8.732;2023-07-30T11:06:23;3.13;;;2.17;;
15944;SDS011;30172;48.832;8.732;2023-07-30T11:08:48;8.05;;;2.90;;
15944;SDS011;30172;48.832;8.732;2023-07-30T11:11:14;3.00;;;2.55;;
15944;SDS011;30172;48.832;8.732;2023-07-30T11:13:41;3.10;;;2.60;;
15944;SDS011;30172;48.832;8.732;2023-07-30T11:16:13;4.75;;;2.33;;
15944;SDS011;30172;48.832;8.732;2023-07-30T11:18:39;4.72;;;2.30;;
15944;SDS011;30172;48.832;8.732;2023-07-30T11:21:13;4.32;;;2.83;;
15944;SDS011;30172;48.832;8.732;2023-07-30T11:23:41;4.57;;;2.70;;
15944;SDS011;30172;48.832;8.732;2023-07-30T11:26:07;3.38;;;2.30;;
15944;SDS011;30172;48.832;8.732;2023-07-30T11:28:34;5.90;;;2.90;;
15944;SDS011;30172;48.832;8.732;2023-07-30T11:31:37;4.95;;;2.38;;
15944;SDS011;30172;48.832;8.732;2023-07-30T11:33:55;3.97;;;2.55;;
15944;SDS011;30172;48.832;8.732;2023-07-30T11:36:22;3.28;;;2.15;;
15944;SDS011;30172;48.832;8.732;2023-07-30T11:38:47;5.57;;;2.75;;
15944;SDS011;30172;48.832;8.732;2023-07-30T11:41:13;5.13;;;2.28;;
15944;SDS011;30172;48.832;8.732;2023-07-30T11:43:39;4.85;;;2.33;;
15944;SDS011;30172;48.832;8.732;2023-07-30T11:46:06;5.18;;;2.90;;
15944;SDS011;30172;48.832;8.732;2023-07-30T11:48:32;2.90;;;2.55;;
15944;SDS011;30172;48.832;8.732;2023-07-30T11:50:58;2.97;;;2.17;;
15944;SDS011;30172;48.832;8.732;2023-07-30T11:53:29;4.82;;;2.17;;
15944;SDS011;30172;48.832;8.732;2023-07-30T11:56:14;4.45;;;2.40;;
15944;SDS011;30172;48.832;8.732;2023-07-30T11:58:42;2.47;;;2.28;;
15944;SDS011;30172;48.832;8.732;2023-07-30T12:01:07;2.67;;;2.30;;
15944;SDS011;30172;48.832;8.732;2023-07-30T12:03:33;2.65;;;2.05;;
15944;SDS011;30172;48.832;8.732;2023-07-30T12:05:58;3.90;;;2.17;;
15944;SDS011;30172;48.832;8.732;2023-07-30T12:08:29;3.20;;;2.00;;
15944;SDS011;30172;48.832;8.732;2023-07-30T12:10:55;4.22;;;2.22;;
15944;SDS011;30172;48.832;8.732;2023-07-30T12:13:21;4.80;;;2.10;;
15944;SDS011;30172;48.832;8.732;2023-07-30T12:15:51;3.30;;;2.30;;
15944;SDS011;30172;48.832;8.732;2023-07-30T12:18:17;3.60;;;2.10;;
15944;SDS011;30172;48.832;8.732;2023-07-30T12:20:43;4.38;;;2.30;;
15944;SDS011;30172;48.832;8.732;2023-07-30T12:23:08;8.85;;;2.50;;
15944;SDS011;30172;48.832;8.732;2023-07-30T12:25:33;3.80;;;1.90;;
15944;SDS011;30172;48.832;8.732;2023-07-30T12:27:59;3.67;;;1.75;;
15944;SDS011;30172;48.832;8.732;2023-07-30T12:30:25;2.50;;;1.73;;
15944;SDS011;30172;48.832;8.732;2023-07-30T12:32:51;2.33;;;1.95;;
15944;SDS011;30172;48.832;8.732;2023-07-30T12:35:16;3.85;;;2.03;;
15944;SDS011;30172;48.832;8.732;2023-07-30T12:37:42;3.63;;;1.80;;
15944;SDS011;30172;48.832;8.732;2023-07-30T12:40:07;4.38;;;1.92;;
15944;SDS011;30172;48.832;8.732;2023-07-30T12:42:33;3.10;;;1.90;;
15944;SDS011;30172;48.832;8.732;2023-07-30T12:44:58;3.80;;;2.10;;
15944;SDS011;30172;48.832;8.732;2023-07-30T12:47:23;4.18;;;1.90;;
15944;SDS011;30172;48.832;8.732;2023-07-30T12:49:49;2.28;;;1.77;;
15944;SDS011;30172;48.832;8.732;2023-07-30T12:52:14;2.40;;;1.50;;
15944;SDS011;30172;48.832;8.732;2023-07-30T12:54:39;2.17;;;1.50;;
15944;SDS011;30172;48.832;8.732;2023-07-30T12:57:05;3.00;;;1.73;;
15944;SDS011;30172;48.832;8.732;2023-07-30T12:59:31;2.10;;;1.60;;
15944;SDS011;30172;48.832;8.732;2023-07-30T13:01:56;3.67;;;1.73;;
15944;SDS011;30172;48.832;8.732;2023-07-30T13:04:21;5.30;;;1.88;;
15944;SDS011;30172;48.832;8.732;2023-07-30T13:06:48;4.03;;;2.13;;
15944;SDS011;30172;48.832;8.732;2023-07-30T13:09:14;5.38;;;1.52;;
15944;SDS011;30172;48.832;8.732;2023-07-30T13:11:39;3.22;;;1.88;;
15944;SDS011;30172;48.832;8.732;2023-07-30T13:14:04;4.97;;;2.08;;
15944;SDS011;30172;48.832;8.732;2023-07-30T13:16:30;2.08;;;1.63;;
15944;SDS011;30172;48.832;8.732;2023-07-30T13:18:57;3.97;;;1.80;;
15944;SDS011;30172;48.832;8.732;2023-07-30T13:21:22;2.65;;;1.75;;
15944;SDS011;30172;48.832;8.732;2023-07-30T13:23:47;4.75;;;1.98;;
15944;SDS011;30172;48.832;8.732;2023-07-30T13:26:12;3.53;;;1.90;;
15944;SDS011;30172;48.832;8.732;2023-07-30T13:28:38;3.00;;;1.70;;
15944;SDS011;30172;48.832;8.732;2023-07-30T13:31:03;2.33;;;2.05;;
15944;SDS011;30172;48.832;8.732;2023-07-30T13:33:28;3.55;;;1.90;;
15944;SDS011;30172;48.832;8.732;2023-07-30T13:35:54;2.83;;;1.83;;
15944;SDS011;30172;48.832;8.732;2023-07-30T13:38:19;2.78;;;1.50;;
15944;SDS011;30172;48.832;8.732;2023-07-30T13:40:46;6.30;;;1.77;;
15944;SDS011;30172;48.832;8.732;2023-07-30T13:43:11;3.50;;;1.90;;
15944;SDS011;30172;48.832;8.732;2023-07-30T13:45:37;5.68;;;1.95;;
15944;SDS011;30172;48.832;8.732;2023-07-30T13:48:02;6.30;;;1.80;;
15944;SDS011;30172;48.832;8.732;2023-07-30T13:50:27;4.07;;;2.00;;
15944;SDS011;30172;48.832;8.732;2023-07-30T13:52:53;4.03;;;2.00;;
15944;SDS011;30172;48.832;8.732;2023-07-30T13:55:18;4.28;;;1.70;;
15944;SDS011;30172;48.832;8.732;2023-07-30T13:57:45;4.93;;;1.83;;
15944;SDS011;30172;48.832;8.732;2023-07-30T14:00:10;3.13;;;1.98;;
15944;SDS011;30172;48.832;8.732;2023-07-30T14:02:36;4.22;;;1.67;;
15944;SDS011;30172;48.832;8.732;2023-07-30T14:05:01;3.05;;;1.80;;
15944;SDS011;30172;48.832;8.732;2023-07-30T14:07:27;3.97;;;1.95;;
15944;SDS011;30172;48.832;8.732;2023-07-30T14:09:52;2.40;;;1.75;;
15944;SDS011;30172;48.832;8.732;2023-07-30T14:12:18;3.65;;;1.60;;
15944;SDS011;30172;48.832;8.732;2023-07-30T14:14:43;4.68;;;1.70;;
15944;SDS011;30172;48.832;8.732;2023-07-30T14:17:08;5.05;;;1.83;;
15944;SDS011;30172;48.832;8.732;2023-07-30T14:19:34;5.82;;;1.98;;
15944;SDS011;30172;48.832;8.732;2023-07-30T14:21:59;3.58;;;1.80;;
15944;SDS011;30172;48.832;8.732;2023-07-30T14:24:24;5.63;;;1.73;;
15944;SDS011;30172;48.832;8.732;2023-07-30T14:26:50;6.70;;;2.85;;
15944;SDS011;30172;48.832;8.732;2023-07-30T14:29:15;5.22;;;1.70;;
15944;SDS011;30172;48.832;8.732;2023-07-30T14:31:40;2.75;;;1.67;;
15944;SDS011;30172;48.832;8.732;2023-07-30T14:34:06;3.20;;;1.75;;
15944;SDS011;30172;48.832;8.732;2023-07-30T14:36:31;3.40;;;1.52;;
15944;SDS011;30172;48.832;8.732;2023-07-30T14:38:56;4.63;;;1.80;;
15944;SDS011;30172;48.832;8.732;2023-07-30T14:41:22;2.92;;;1.60;;